Overseas Visayas — V7NE6 — position and weather

sailwx.info

Track history (hours):
 
Tides and Currents Weather Stations Pressure Air Temp Water Temp Dewpoint Dewpoint Depression Visibility Wind Speed Wind Dir Waves Ship Positions

Overseas Visayas

Last reported at 2017-Sep-22 01:15 UTC. Time now 2017-Nov-23 05:20 UTC.
Position N 33°44' W 118°10'.
Warning: this ship's position is months out of date.

Length 228 m; draft 8 m.

Type: Ship (hazmat cat A). MMSI: 538002947.

Date/timePositionNaut miles runAvg speedWind from/ knotsBaromVisibWave heightAir tempDewpointWater temp
2017-Sep-22 01:15N 33°44' W 118°10'0 0.0
2017-Sep-22 00:57N 33°44' W 118°10'0 0.0
2017-Sep-22 00:27N 33°44' W 118°10'0 0.0
2017-Sep-21 23:57N 33°44' W 118°10'0 0.0
2017-Sep-21 23:15N 33°44' W 118°10'0 0.0
2017-Sep-21 22:57N 33°44' W 118°10'0 0.0
2017-Sep-21 22:30N 33°44' W 118°10'0 0.0
2017-Sep-21 21:48N 33°44' W 118°10'0 0.5
2017-Sep-21 21:18N 33°44' W 118°10'1 3.5
2017-Sep-21 21:00N 33°43' W 118°11'5 9.1
2017-Sep-21 20:30N 33°39' W 118°11'611.5
2017-Sep-21 20:00N 33°36' W 118°17'13 8.6
2017-Sep-21 18:29N 33°41' W 118°31'5 9.9
2017-Sep-21 17:57N 33°43' W 118°38'511.8
2017-Sep-21 17:30N 33°43' W 118°44'611.9
2017-Sep-21 17:00N 33°43' W 118°51'713.1
2017-Sep-21 16:30N 33°43' W 118°59'714.1
2017-Sep-21 16:00N 33°44' W 119°07'5 7.2
2017-Sep-21 15:22N 33°43' W 119°13'410.2
2017-Sep-21 14:59N 33°43' W 119°17'714.2
2017-Sep-21 14:31N 33°41' W 119°25'713.8
2017-Sep-21 14:00N 33°40' W 119°34'714.3
2017-Sep-21 13:30N 33°39' W 119°42'714.0
2017-Sep-21 12:59N 33°37' W 119°50'713.5
2017-Sep-21 12:30N 33°36' W 119°58'714.1
2017-Sep-21 11:59N 33°35' W 120°07'713.8
2017-Sep-21 11:27N 33°33' W 120°16'613.6
2017-Sep-21 11:00N 33°32' W 120°23'713.3
2017-Sep-21 10:30N 33°32' W 120°31'613.3
2017-Sep-21 10:01N 33°31' W 120°38'713.5
2017-Sep-21 09:30N 33°30' W 120°47'713.5
2017-Sep-21 09:01N 33°30' W 120°55'713.8
2017-Sep-21 08:31N 33°33' W 121°02'713.6
2017-Sep-21 08:01N 33°37' W 121°08'713.5
2017-Sep-21 07:30N 33°41' W 121°15'713.4
2017-Sep-21 07:00N 33°45' W 121°22'713.4
2017-Sep-21 06:30N 33°49' W 121°28'713.5
2017-Sep-21 06:00N 33°52' W 121°35'713.4
2017-Sep-21 05:31N 33°56' W 121°42'713.6
2017-Sep-21 05:00N 33°60' W 121°49'713.6
2017-Sep-21 04:29N 34°04' W 121°56'713.6
2017-Sep-21 04:01N 34°08' W 122°02'21112.8
2017-Sep-20 11:31N 37°32' W 123°05'014.0
2017-Sep-20 11:30N 37°32' W 123°05'713.3
2017-Sep-20 11:00N 37°37' W 122°59'713.9
2017-Sep-20 10:30N 37°41' W 122°51'612.3
2017-Sep-20 10:00N 37°42' W 122°44'4 7.7
2017-Sep-20 09:30N 37°44' W 122°40'3 6.5
2017-Sep-20 09:00N 37°46' W 122°37'4 8.3
2017-Sep-20 08:30N 37°48' W 122°32'713.3
2017-Sep-20 08:00N 37°49' W 122°24'4 7.6
2017-Sep-20 07:28N 37°45' W 122°21'0 0.1
2017-Sep-20 06:58N 37°45' W 122°21'0 0.0
2017-Sep-20 06:28N 37°45' W 122°21'0 0.0
2017-Sep-20 06:00N 37°45' W 122°21'0 0.0
2017-Sep-20 05:31N 37°45' W 122°21'0 0.0
2017-Sep-20 05:00N 37°45' W 122°21'0 0.1
2017-Sep-20 04:30N 37°45' W 122°21'2 4.8
2017-Sep-20 04:01N 37°48' W 122°22'713.8
2017-Sep-20 03:30N 37°54' W 122°25'1 3.0
2017-Sep-20 03:00N 37°56' W 122°25'0 0.0
2017-Sep-19 09:05N 37°56' W 122°25'0 0.0
2017-Sep-19 08:44N 37°56' W 122°25'0 0.0
2017-Sep-19 08:26N 37°56' W 122°25'0 0.0
2017-Sep-19 07:38N 37°56' W 122°25'0 0.0
2017-Sep-18 19:32N 37°56' W 122°25'0 0.0
2017-Sep-18 19:30N 37°56' W 122°25'0 0.1
2017-Sep-18 19:00N 37°56' W 122°25'1 2.1
2017-Sep-18 18:30N 37°55' W 122°25'4 8.1
2017-Sep-18 18:00N 37°51' W 122°26'713.3
2017-Sep-18 17:30N 37°47' W 122°33'713.4
2017-Sep-18 17:00N 37°45' W 122°41'4 7.2
2017-Sep-18 16:30N 37°42' W 122°44'4 8.9
2017-Sep-18 16:00N 37°39' W 122°49'5 9.7
2017-Sep-18 15:30N 37°37' W 122°54'5 9.7
2017-Sep-18 15:00N 37°34' W 122°59'5 9.1
2017-Sep-18 14:30N 37°31' W 123°03'611.6
2017-Sep-18 14:00N 37°27' W 123°08'  
Track history (hours):
 
Tides and Currents Weather Stations Pressure Air Temp Water Temp Dewpoint Dewpoint Depression Visibility Wind Speed Wind Dir Waves Ship Positions

Overseas Visayas

Last reported at 2017-Sep-22 01:15 UTC. Time now 2017-Nov-23 05:20 UTC.
Position N 33°44' W 118°10'.
Warning: this ship's position is months out of date.

Length 228 m; draft 8 m.

Type: Ship (hazmat cat A). MMSI: 538002947.

Date/timePositionNaut miles runAvg speedWind from/ knotsBaromVisibWave heightAir tempDewpointWater temp
2017-Sep-22 01:15N 33°44' W 118°10'0 0.0
2017-Sep-22 00:57N 33°44' W 118°10'0 0.0
2017-Sep-22 00:27N 33°44' W 118°10'0 0.0
2017-Sep-21 23:57N 33°44' W 118°10'0 0.0
2017-Sep-21 23:15N 33°44' W 118°10'0 0.0
2017-Sep-21 22:57N 33°44' W 118°10'0 0.0
2017-Sep-21 22:30N 33°44' W 118°10'0 0.0
2017-Sep-21 21:48N 33°44' W 118°10'0 0.5
2017-Sep-21 21:18N 33°44' W 118°10'1 3.5
2017-Sep-21 21:00N 33°43' W 118°11'5 9.1
2017-Sep-21 20:30N 33°39' W 118°11'611.5
2017-Sep-21 20:00N 33°36' W 118°17'13 8.6
2017-Sep-21 18:29N 33°41' W 118°31'5 9.9
2017-Sep-21 17:57N 33°43' W 118°38'511.8
2017-Sep-21 17:30N 33°43' W 118°44'611.9
2017-Sep-21 17:00N 33°43' W 118°51'713.1
2017-Sep-21 16:30N 33°43' W 118°59'714.1
2017-Sep-21 16:00N 33°44' W 119°07'5 7.2
2017-Sep-21 15:22N 33°43' W 119°13'410.2
2017-Sep-21 14:59N 33°43' W 119°17'714.2
2017-Sep-21 14:31N 33°41' W 119°25'713.8
2017-Sep-21 14:00N 33°40' W 119°34'714.3
2017-Sep-21 13:30N 33°39' W 119°42'714.0
2017-Sep-21 12:59N 33°37' W 119°50'713.5
2017-Sep-21 12:30N 33°36' W 119°58'714.1
2017-Sep-21 11:59N 33°35' W 120°07'713.8
2017-Sep-21 11:27N 33°33' W 120°16'613.6
2017-Sep-21 11:00N 33°32' W 120°23'713.3
2017-Sep-21 10:30N 33°32' W 120°31'613.3
2017-Sep-21 10:01N 33°31' W 120°38'713.5
2017-Sep-21 09:30N 33°30' W 120°47'713.5
2017-Sep-21 09:01N 33°30' W 120°55'713.8
2017-Sep-21 08:31N 33°33' W 121°02'713.6
2017-Sep-21 08:01N 33°37' W 121°08'713.5
2017-Sep-21 07:30N 33°41' W 121°15'713.4
2017-Sep-21 07:00N 33°45' W 121°22'713.4
2017-Sep-21 06:30N 33°49' W 121°28'713.5
2017-Sep-21 06:00N 33°52' W 121°35'713.4
2017-Sep-21 05:31N 33°56' W 121°42'713.6
2017-Sep-21 05:00N 33°60' W 121°49'713.6
2017-Sep-21 04:29N 34°04' W 121°56'713.6
2017-Sep-21 04:01N 34°08' W 122°02'21112.8
2017-Sep-20 11:31N 37°32' W 123°05'014.0
2017-Sep-20 11:30N 37°32' W 123°05'713.3
2017-Sep-20 11:00N 37°37' W 122°59'713.9
2017-Sep-20 10:30N 37°41' W 122°51'612.3
2017-Sep-20 10:00N 37°42' W 122°44'4 7.7
2017-Sep-20 09:30N 37°44' W 122°40'3 6.5
2017-Sep-20 09:00N 37°46' W 122°37'4 8.3
2017-Sep-20 08:30N 37°48' W 122°32'713.3
2017-Sep-20 08:00N 37°49' W 122°24'4 7.6
2017-Sep-20 07:28N 37°45' W 122°21'0 0.1
2017-Sep-20 06:58N 37°45' W 122°21'0 0.0
2017-Sep-20 06:28N 37°45' W 122°21'0 0.0
2017-Sep-20 06:00N 37°45' W 122°21'0 0.0
2017-Sep-20 05:31N 37°45' W 122°21'0 0.0
2017-Sep-20 05:00N 37°45' W 122°21'0 0.1
2017-Sep-20 04:30N 37°45' W 122°21'2 4.8
2017-Sep-20 04:01N 37°48' W 122°22'713.8
2017-Sep-20 03:30N 37°54' W 122°25'1 3.0
2017-Sep-20 03:00N 37°56' W 122°25'0 0.0
2017-Sep-19 09:05N 37°56' W 122°25'0 0.0
2017-Sep-19 08:44N 37°56' W 122°25'0 0.0
2017-Sep-19 08:26N 37°56' W 122°25'0 0.0
2017-Sep-19 07:38N 37°56' W 122°25'0 0.0
2017-Sep-18 19:32N 37°56' W 122°25'0 0.0
2017-Sep-18 19:30N 37°56' W 122°25'0 0.1
2017-Sep-18 19:00N 37°56' W 122°25'1 2.1
2017-Sep-18 18:30N 37°55' W 122°25'4 8.1
2017-Sep-18 18:00N 37°51' W 122°26'713.3
2017-Sep-18 17:30N 37°47' W 122°33'713.4
2017-Sep-18 17:00N 37°45' W 122°41'4 7.2
2017-Sep-18 16:30N 37°42' W 122°44'4 8.9
2017-Sep-18 16:00N 37°39' W 122°49'5 9.7
2017-Sep-18 15:30N 37°37' W 122°54'5 9.7
2017-Sep-18 15:00N 37°34' W 122°59'5 9.1
2017-Sep-18 14:30N 37°31' W 123°03'611.6
2017-Sep-18 14:00N 37°27' W 123°08'  

Dump ship's entire track history